sensor_id;sensor_type;location;lat;lon;timestamp;P1;durP1;ratioP1;P2;durP2;ratioP2
14052;SDS011;7101;51.600;7.310;2023-02-22T00:00:33;68.20;;;31.35;;
14052;SDS011;7101;51.600;7.310;2023-02-22T00:03:08;66.43;;;31.73;;
14052;SDS011;7101;51.600;7.310;2023-02-22T00:05:37;60.85;;;29.88;;
14052;SDS011;7101;51.600;7.310;2023-02-22T00:08:04;70.20;;;32.80;;
14052;SDS011;7101;51.600;7.310;2023-02-22T00:10:35;74.25;;;33.17;;
14052;SDS011;7101;51.600;7.310;2023-02-22T00:13:04;73.00;;;32.78;;
14052;SDS011;7101;51.600;7.310;2023-02-22T00:15:32;71.65;;;31.65;;
14052;SDS011;7101;51.600;7.310;2023-02-22T00:18:00;70.40;;;32.63;;
14052;SDS011;7101;51.600;7.310;2023-02-22T00:20:28;74.43;;;31.83;;
14052;SDS011;7101;51.600;7.310;2023-02-22T00:22:55;67.03;;;29.80;;
14052;SDS011;7101;51.600;7.310;2023-02-22T00:25:25;68.13;;;29.38;;
14052;SDS011;7101;51.600;7.310;2023-02-22T00:27:53;67.75;;;30.40;;
14052;SDS011;7101;51.600;7.310;2023-02-22T00:30:24;58.47;;;27.00;;
14052;SDS011;7101;51.600;7.310;2023-02-22T00:32:52;57.45;;;26.23;;
14052;SDS011;7101;51.600;7.310;2023-02-22T00:35:21;54.15;;;24.05;;
14052;SDS011;7101;51.600;7.310;2023-02-22T00:37:50;60.53;;;26.75;;
14052;SDS011;7101;51.600;7.310;2023-02-22T00:40:19;74.22;;;30.27;;
14052;SDS011;7101;51.600;7.310;2023-02-22T00:42:47;64.25;;;28.02;;
14052;SDS011;7101;51.600;7.310;2023-02-22T00:45:17;80.85;;;31.13;;
14052;SDS011;7101;51.600;7.310;2023-02-22T00:47:45;73.55;;;30.02;;
14052;SDS011;7101;51.600;7.310;2023-02-22T00:50:11;65.65;;;27.75;;
14052;SDS011;7101;51.600;7.310;2023-02-22T00:52:41;64.85;;;27.00;;
14052;SDS011;7101;51.600;7.310;2023-02-22T00:55:09;59.58;;;26.95;;
14052;SDS011;7101;51.600;7.310;2023-02-22T00:57:39;65.07;;;26.92;;
14052;SDS011;7101;51.600;7.310;2023-02-22T01:00:07;61.63;;;27.42;;
14052;SDS011;7101;51.600;7.310;2023-02-22T01:02:38;63.95;;;25.85;;
14052;SDS011;7101;51.600;7.310;2023-02-22T01:05:05;59.65;;;26.83;;
14052;SDS011;7101;51.600;7.310;2023-02-22T01:07:33;55.05;;;23.77;;
14052;SDS011;7101;51.600;7.310;2023-02-22T01:10:00;57.47;;;25.25;;
14052;SDS011;7101;51.600;7.310;2023-02-22T01:12:27;54.75;;;25.10;;
14052;SDS011;7101;51.600;7.310;2023-02-22T01:14:54;54.25;;;25.48;;
14052;SDS011;7101;51.600;7.310;2023-02-22T01:17:22;63.10;;;26.58;;
14052;SDS011;7101;51.600;7.310;2023-02-22T01:19:50;59.38;;;26.40;;
14052;SDS011;7101;51.600;7.310;2023-02-22T01:22:18;60.20;;;25.52;;
14052;SDS011;7101;51.600;7.310;2023-02-22T01:24:45;58.28;;;25.95;;
14052;SDS011;7101;51.600;7.310;2023-02-22T01:27:13;61.60;;;25.65;;
14052;SDS011;7101;51.600;7.310;2023-02-22T01:29:40;68.57;;;28.75;;
14052;SDS011;7101;51.600;7.310;2023-02-22T01:32:09;62.92;;;28.70;;
14052;SDS011;7101;51.600;7.310;2023-02-22T01:34:37;60.55;;;26.70;;
14052;SDS011;7101;51.600;7.310;2023-02-22T01:37:05;56.75;;;25.40;;
14052;SDS011;7101;51.600;7.310;2023-02-22T01:39:32;58.20;;;27.60;;
14052;SDS011;7101;51.600;7.310;2023-02-22T01:41:59;67.72;;;27.08;;
14052;SDS011;7101;51.600;7.310;2023-02-22T01:44:27;62.10;;;28.13;;
14052;SDS011;7101;51.600;7.310;2023-02-22T01:46:57;81.53;;;34.88;;
14052;SDS011;7101;51.600;7.310;2023-02-22T01:49:25;76.57;;;33.70;;
14052;SDS011;7101;51.600;7.310;2023-02-22T01:51:55;71.68;;;32.17;;
14052;SDS011;7101;51.600;7.310;2023-02-22T01:54:28;78.55;;;32.78;;
14052;SDS011;7101;51.600;7.310;2023-02-22T01:56:57;71.72;;;33.03;;
14052;SDS011;7101;51.600;7.310;2023-02-22T01:59:31;65.13;;;31.45;;
14052;SDS011;7101;51.600;7.310;2023-02-22T02:02:01;101.22;;;35.28;;
14052;SDS011;7101;51.600;7.310;2023-02-22T02:04:29;98.50;;;34.85;;
14052;SDS011;7101;51.600;7.310;2023-02-22T02:06:58;91.53;;;34.58;;
14052;SDS011;7101;51.600;7.310;2023-02-22T02:09:30;94.93;;;35.65;;
14052;SDS011;7101;51.600;7.310;2023-02-22T02:12:02;112.40;;;35.28;;
14052;SDS011;7101;51.600;7.310;2023-02-22T02:14:30;80.13;;;33.10;;
14052;SDS011;7101;51.600;7.310;2023-02-22T02:16:58;82.22;;;35.25;;
14052;SDS011;7101;51.600;7.310;2023-02-22T02:19:29;95.45;;;34.00;;
14052;SDS011;7101;51.600;7.310;2023-02-22T02:22:11;117.05;;;35.00;;
14052;SDS011;7101;51.600;7.310;2023-02-22T02:31:14;252.05;;;39.80;;
14052;SDS011;7101;51.600;7.310;2023-02-22T02:34:02;593.45;;;51.03;;
14052;SDS011;7101;51.600;7.310;2023-02-22T02:36:33;428.08;;;41.58;;
14052;SDS011;7101;51.600;7.310;2023-02-22T02:39:15;519.22;;;44.67;;
14052;SDS011;7101;51.600;7.310;2023-02-22T02:41:51;611.47;;;48.15;;
14052;SDS011;7101;51.600;7.310;2023-02-22T02:44:19;568.10;;;47.53;;
14052;SDS011;7101;51.600;7.310;2023-02-22T02:46:53;677.72;;;49.60;;
14052;SDS011;7101;51.600;7.310;2023-02-22T02:49:26;552.13;;;45.90;;
14052;SDS011;7101;51.600;7.310;2023-02-22T02:51:56;304.10;;;37.05;;
14052;SDS011;7101;51.600;7.310;2023-02-22T02:54:24;346.92;;;39.30;;
14052;SDS011;7101;51.600;7.310;2023-02-22T02:56:52;442.95;;;42.65;;
14052;SDS011;7101;51.600;7.310;2023-02-22T02:59:24;564.47;;;45.75;;
14052;SDS011;7101;51.600;7.310;2023-02-22T03:01:56;673.08;;;50.28;;
14052;SDS011;7101;51.600;7.310;2023-02-22T03:04:40;634.50;;;50.90;;
14052;SDS011;7101;51.600;7.310;2023-02-22T03:07:25;538.38;;;43.67;;
14052;SDS011;7101;51.600;7.310;2023-02-22T03:10:03;513.75;;;42.78;;
14052;SDS011;7101;51.600;7.310;2023-02-22T03:12:41;159.48;;;33.67;;
14052;SDS011;7101;51.600;7.310;2023-02-22T03:15:20;346.60;;;36.15;;
14052;SDS011;7101;51.600;7.310;2023-02-22T03:17:55;503.05;;;41.83;;
14052;SDS011;7101;51.600;7.310;2023-02-22T03:20:32;309.23;;;35.53;;
14052;SDS011;7101;51.600;7.310;2023-02-22T03:23:09;457.88;;;40.40;;
14052;SDS011;7101;51.600;7.310;2023-02-22T03:25:41;317.02;;;34.72;;
14052;SDS011;7101;51.600;7.310;2023-02-22T03:28:11;514.85;;;42.38;;
14052;SDS011;7101;51.600;7.310;2023-02-22T03:30:44;573.78;;;44.55;;
14052;SDS011;7101;51.600;7.310;2023-02-22T03:33:14;645.75;;;48.13;;
14052;SDS011;7101;51.600;7.310;2023-02-22T03:35:45;341.95;;;40.20;;
14052;SDS011;7101;51.600;7.310;2023-02-22T03:38:15;513.30;;;41.75;;
14052;SDS011;7101;51.600;7.310;2023-02-22T03:40:45;480.13;;;41.70;;
14052;SDS011;7101;51.600;7.310;2023-02-22T03:43:17;761.92;;;51.03;;
14052;SDS011;7101;51.600;7.310;2023-02-22T03:45:50;587.53;;;45.00;;
14052;SDS011;7101;51.600;7.310;2023-02-22T03:48:18;704.03;;;49.42;;
14052;SDS011;7101;51.600;7.310;2023-02-22T03:50:50;348.10;;;34.00;;
14052;SDS011;7101;51.600;7.310;2023-02-22T03:53:17;619.72;;;45.08;;
14052;SDS011;7101;51.600;7.310;2023-02-22T03:55:47;623.70;;;44.00;;
14052;SDS011;7101;51.600;7.310;2023-02-22T03:58:16;466.38;;;40.95;;
14052;SDS011;7101;51.600;7.310;2023-02-22T04:00:46;527.40;;;39.85;;
14052;SDS011;7101;51.600;7.310;2023-02-22T04:03:18;550.60;;;41.25;;
14052;SDS011;7101;51.600;7.310;2023-02-22T04:05:45;453.85;;;36.42;;
14052;SDS011;7101;51.600;7.310;2023-02-22T04:08:12;416.70;;;35.58;;
14052;SDS011;7101;51.600;7.310;2023-02-22T04:10:39;431.55;;;37.58;;
14052;SDS011;7101;51.600;7.310;2023-02-22T04:13:06;362.92;;;32.97;;
14052;SDS011;7101;51.600;7.310;2023-02-22T04:15:35;368.83;;;32.72;;
14052;SDS011;7101;51.600;7.310;2023-02-22T04:18:02;455.35;;;35.08;;
14052;SDS011;7101;51.600;7.310;2023-02-22T04:20:31;451.48;;;33.05;;
14052;SDS011;7101;51.600;7.310;2023-02-22T04:22:59;413.17;;;31.15;;
14052;SDS011;7101;51.600;7.310;2023-02-22T04:25:26;439.25;;;33.10;;
14052;SDS011;7101;51.600;7.310;2023-02-22T04:27:53;465.10;;;32.97;;
14052;SDS011;7101;51.600;7.310;2023-02-22T04:30:20;474.83;;;33.25;;
14052;SDS011;7101;51.600;7.310;2023-02-22T04:32:48;402.42;;;30.55;;
14052;SDS011;7101;51.600;7.310;2023-02-22T04:35:14;357.67;;;26.55;;
14052;SDS011;7101;51.600;7.310;2023-02-22T04:37:43;462.77;;;31.08;;
14052;SDS011;7101;51.600;7.310;2023-02-22T04:40:10;317.00;;;26.33;;
14052;SDS011;7101;51.600;7.310;2023-02-22T04:42:37;303.08;;;26.40;;
14052;SDS011;7101;51.600;7.310;2023-02-22T04:45:05;381.65;;;27.92;;
14052;SDS011;7101;51.600;7.310;2023-02-22T04:47:33;401.13;;;29.88;;
14052;SDS011;7101;51.600;7.310;2023-02-22T04:50:00;421.58;;;31.08;;
14052;SDS011;7101;51.600;7.310;2023-02-22T04:52:27;491.50;;;33.33;;
14052;SDS011;7101;51.600;7.310;2023-02-22T04:54:56;378.23;;;28.30;;
14052;SDS011;7101;51.600;7.310;2023-02-22T04:57:23;412.88;;;29.75;;
14052;SDS011;7101;51.600;7.310;2023-02-22T04:59:51;319.48;;;27.60;;
14052;SDS011;7101;51.600;7.310;2023-02-22T05:02:18;357.75;;;30.17;;
14052;SDS011;7101;51.600;7.310;2023-02-22T05:04:45;314.40;;;26.95;;
14052;SDS011;7101;51.600;7.310;2023-02-22T05:07:12;347.02;;;28.13;;
14052;SDS011;7101;51.600;7.310;2023-02-22T05:09:39;253.35;;;24.10;;
14052;SDS011;7101;51.600;7.310;2023-02-22T05:12:07;133.10;;;20.58;;
14052;SDS011;7101;51.600;7.310;2023-02-22T05:14:34;171.25;;;22.48;;
14052;SDS011;7101;51.600;7.310;2023-02-22T05:17:01;177.52;;;21.73;;
14052;SDS011;7101;51.600;7.310;2023-02-22T05:19:28;96.00;;;20.35;;
14052;SDS011;7101;51.600;7.310;2023-02-22T05:21:55;428.60;;;30.48;;
14052;SDS011;7101;51.600;7.310;2023-02-22T05:24:22;327.90;;;27.33;;
14052;SDS011;7101;51.600;7.310;2023-02-22T05:26:49;342.48;;;28.10;;
14052;SDS011;7101;51.600;7.310;2023-02-22T05:29:18;98.25;;;20.58;;
14052;SDS011;7101;51.600;7.310;2023-02-22T05:31:45;98.63;;;19.10;;
14052;SDS011;7101;51.600;7.310;2023-02-22T05:34:13;345.40;;;28.02;;
14052;SDS011;7101;51.600;7.310;2023-02-22T05:36:40;371.40;;;28.75;;
14052;SDS011;7101;51.600;7.310;2023-02-22T05:39:07;253.95;;;24.67;;
14052;SDS011;7101;51.600;7.310;2023-02-22T05:41:34;251.88;;;25.38;;
14052;SDS011;7101;51.600;7.310;2023-02-22T05:44:01;346.95;;;29.40;;
14052;SDS011;7101;51.600;7.310;2023-02-22T05:46:32;315.80;;;27.15;;
14052;SDS011;7101;51.600;7.310;2023-02-22T05:48:59;345.23;;;28.15;;
14052;SDS011;7101;51.600;7.310;2023-02-22T05:51:26;143.68;;;20.52;;
14052;SDS011;7101;51.600;7.310;2023-02-22T05:53:53;210.15;;;23.67;;
14052;SDS011;7101;51.600;7.310;2023-02-22T05:56:20;87.45;;;19.75;;
14052;SDS011;7101;51.600;7.310;2023-02-22T05:58:48;184.93;;;25.08;;
14052;SDS011;7101;51.600;7.310;2023-02-22T06:01:15;89.68;;;20.05;;
14052;SDS011;7101;51.600;7.310;2023-02-22T06:03:46;116.47;;;20.88;;
14052;SDS011;7101;51.600;7.310;2023-02-22T06:06:13;154.45;;;22.45;;
14052;SDS011;7101;51.600;7.310;2023-02-22T06:08:41;206.63;;;24.90;;
14052;SDS011;7101;51.600;7.310;2023-02-22T06:11:08;164.68;;;23.02;;
14052;SDS011;7101;51.600;7.310;2023-02-22T06:13:35;78.13;;;19.77;;
14052;SDS011;7101;51.600;7.310;2023-02-22T06:16:03;128.95;;;21.35;;
14052;SDS011;7101;51.600;7.310;2023-02-22T06:18:30;209.98;;;24.27;;
14052;SDS011;7101;51.600;7.310;2023-02-22T06:20:59;223.48;;;21.67;;
14052;SDS011;7101;51.600;7.310;2023-02-22T06:23:26;223.18;;;20.33;;
14052;SDS011;7101;51.600;7.310;2023-02-22T06:25:53;234.77;;;21.38;;
14052;SDS011;7101;51.600;7.310;2023-02-22T06:28:20;169.18;;;20.27;;
14052;SDS011;7101;51.600;7.310;2023-02-22T06:30:47;244.82;;;24.63;;
14052;SDS011;7101;51.600;7.310;2023-02-22T06:33:15;292.20;;;25.40;;
14052;SDS011;7101;51.600;7.310;2023-02-22T06:35:42;316.30;;;26.20;;
14052;SDS011;7101;51.600;7.310;2023-02-22T06:38:11;232.63;;;22.67;;
14052;SDS011;7101;51.600;7.310;2023-02-22T06:40:45;176.70;;;21.65;;
14052;SDS011;7101;51.600;7.310;2023-02-22T06:43:13;311.08;;;27.35;;
14052;SDS011;7101;51.600;7.310;2023-02-22T06:45:45;295.80;;;26.63;;
14052;SDS011;7101;51.600;7.310;2023-02-22T06:48:12;278.90;;;26.33;;
14052;SDS011;7101;51.600;7.310;2023-02-22T06:50:41;304.08;;;25.88;;
14052;SDS011;7101;51.600;7.310;2023-02-22T06:53:08;240.77;;;24.48;;
14052;SDS011;7101;51.600;7.310;2023-02-22T06:55:36;153.00;;;21.30;;
14052;SDS011;7101;51.600;7.310;2023-02-22T06:58:03;263.35;;;25.52;;
14052;SDS011;7101;51.600;7.310;2023-02-22T07:00:31;202.10;;;22.17;;
14052;SDS011;7101;51.600;7.310;2023-02-22T07:02:58;204.65;;;21.33;;
14052;SDS011;7101;51.600;7.310;2023-02-22T07:05:26;236.10;;;23.42;;
14052;SDS011;7101;51.600;7.310;2023-02-22T07:07:54;164.07;;;20.35;;
14052;SDS011;7101;51.600;7.310;2023-02-22T07:10:28;278.08;;;25.50;;
14052;SDS011;7101;51.600;7.310;2023-02-22T07:12:58;153.05;;;20.33;;
14052;SDS011;7101;51.600;7.310;2023-02-22T07:15:26;175.88;;;18.45;;
14052;SDS011;7101;51.600;7.310;2023-02-22T07:17:56;229.60;;;22.30;;
14052;SDS011;7101;51.600;7.310;2023-02-22T07:20:25;234.38;;;22.35;;
14052;SDS011;7101;51.600;7.310;2023-02-22T07:22:53;177.75;;;20.27;;
14052;SDS011;7101;51.600;7.310;2023-02-22T07:25:21;218.50;;;22.25;;
14052;SDS011;7101;51.600;7.310;2023-02-22T07:27:49;239.13;;;23.30;;
14052;SDS011;7101;51.600;7.310;2023-02-22T07:30:20;219.63;;;21.02;;
14052;SDS011;7101;51.600;7.310;2023-02-22T07:32:49;224.65;;;22.08;;
14052;SDS011;7101;51.600;7.310;2023-02-22T07:35:18;134.63;;;18.73;;
14052;SDS011;7101;51.600;7.310;2023-02-22T07:37:47;172.43;;;19.60;;
14052;SDS011;7101;51.600;7.310;2023-02-22T07:40:14;153.30;;;20.02;;
14052;SDS011;7101;51.600;7.310;2023-02-22T07:42:51;220.57;;;21.40;;
14052;SDS011;7101;51.600;7.310;2023-02-22T07:45:21;118.20;;;17.67;;
14052;SDS011;7101;51.600;7.310;2023-02-22T07:47:49;119.25;;;17.73;;
14052;SDS011;7101;51.600;7.310;2023-02-22T07:50:16;66.85;;;16.33;;
14052;SDS011;7101;51.600;7.310;2023-02-22T07:52:46;61.45;;;16.05;;
14052;SDS011;7101;51.600;7.310;2023-02-22T07:55:15;119.35;;;18.05;;
14052;SDS011;7101;51.600;7.310;2023-02-22T07:57:45;76.03;;;17.73;;
14052;SDS011;7101;51.600;7.310;2023-02-22T08:00:13;200.50;;;22.35;;
14052;SDS011;7101;51.600;7.310;2023-02-22T08:02:43;128.50;;;18.27;;
14052;SDS011;7101;51.600;7.310;2023-02-22T08:05:10;126.63;;;19.63;;
14052;SDS011;7101;51.600;7.310;2023-02-22T08:07:37;186.45;;;20.05;;
14052;SDS011;7101;51.600;7.310;2023-02-22T08:10:04;208.13;;;21.02;;
14052;SDS011;7101;51.600;7.310;2023-02-22T08:12:34;120.45;;;17.48;;
14052;SDS011;7101;51.600;7.310;2023-02-22T08:15:03;118.90;;;17.55;;
14052;SDS011;7101;51.600;7.310;2023-02-22T08:17:31;122.95;;;15.90;;
14052;SDS011;7101;51.600;7.310;2023-02-22T08:19:59;146.02;;;16.83;;
14052;SDS011;7101;51.600;7.310;2023-02-22T08:22:27;169.98;;;19.75;;
14052;SDS011;7101;51.600;7.310;2023-02-22T08:24:54;157.27;;;19.10;;
14052;SDS011;7101;51.600;7.310;2023-02-22T08:27:24;94.35;;;17.08;;
14052;SDS011;7101;51.600;7.310;2023-02-22T08:29:53;63.47;;;15.27;;
14052;SDS011;7101;51.600;7.310;2023-02-22T08:32:21;37.05;;;14.30;;
14052;SDS011;7101;51.600;7.310;2023-02-22T08:34:48;65.97;;;16.60;;
14052;SDS011;7101;51.600;7.310;2023-02-22T08:37:17;36.65;;;14.50;;
14052;SDS011;7101;51.600;7.310;2023-02-22T08:39:44;30.33;;;13.82;;
14052;SDS011;7101;51.600;7.310;2023-02-22T08:42:11;35.67;;;14.40;;
14052;SDS011;7101;51.600;7.310;2023-02-22T08:44:38;33.85;;;14.93;;
14052;SDS011;7101;51.600;7.310;2023-02-22T08:47:08;26.45;;;16.25;;
14052;SDS011;7101;51.600;7.310;2023-02-22T08:49:35;25.27;;;15.48;;
14052;SDS011;7101;51.600;7.310;2023-02-22T08:52:02;23.63;;;15.68;;
14052;SDS011;7101;51.600;7.310;2023-02-22T08:54:30;28.80;;;16.50;;
14052;SDS011;7101;51.600;7.310;2023-02-22T08:56:57;31.50;;;17.05;;
14052;SDS011;7101;51.600;7.310;2023-02-22T08:59:24;26.27;;;16.35;;
14052;SDS011;7101;51.600;7.310;2023-02-22T09:01:51;28.95;;;16.75;;
14052;SDS011;7101;51.600;7.310;2023-02-22T09:04:18;24.75;;;15.50;;
14052;SDS011;7101;51.600;7.310;2023-02-22T09:06:46;28.77;;;16.40;;
14052;SDS011;7101;51.600;7.310;2023-02-22T09:09:16;26.75;;;16.63;;
14052;SDS011;7101;51.600;7.310;2023-02-22T09:11:46;23.90;;;15.57;;
14052;SDS011;7101;51.600;7.310;2023-02-22T09:14:13;23.25;;;15.00;;
14052;SDS011;7101;51.600;7.310;2023-02-22T09:16:42;21.15;;;15.57;;
14052;SDS011;7101;51.600;7.310;2023-02-22T09:19:09;21.25;;;15.50;;
14052;SDS011;7101;51.600;7.310;2023-02-22T09:21:36;25.73;;;14.35;;
14052;SDS011;7101;51.600;7.310;2023-02-22T09:24:04;20.33;;;13.82;;
14052;SDS011;7101;51.600;7.310;2023-02-22T09:26:33;21.30;;;14.57;;
14052;SDS011;7101;51.600;7.310;2023-02-22T09:29:05;22.83;;;14.13;;
14052;SDS011;7101;51.600;7.310;2023-02-22T09:31:34;24.90;;;15.73;;
14052;SDS011;7101;51.600;7.310;2023-02-22T09:34:02;20.58;;;14.43;;
14052;SDS011;7101;51.600;7.310;2023-02-22T09:36:37;20.65;;;13.70;;
14052;SDS011;7101;51.600;7.310;2023-02-22T09:39:05;20.27;;;14.85;;
14052;SDS011;7101;51.600;7.310;2023-02-22T09:41:33;21.20;;;15.00;;
14052;SDS011;7101;51.600;7.310;2023-02-22T09:44:10;18.15;;;13.50;;
14052;SDS011;7101;51.600;7.310;2023-02-22T09:46:45;18.90;;;13.75;;
14052;SDS011;7101;51.600;7.310;2023-02-22T09:49:19;18.80;;;14.15;;
14052;SDS011;7101;51.600;7.310;2023-02-22T09:51:51;17.60;;;14.07;;
14052;SDS011;7101;51.600;7.310;2023-02-22T09:54:27;17.42;;;13.65;;
14052;SDS011;7101;51.600;7.310;2023-02-22T09:56:59;16.98;;;13.15;;
14052;SDS011;7101;51.600;7.310;2023-02-22T09:59:36;19.30;;;13.85;;
14052;SDS011;7101;51.600;7.310;2023-02-22T10:02:15;18.30;;;13.13;;
14052;SDS011;7101;51.600;7.310;2023-02-22T10:04:51;16.52;;;12.32;;
14052;SDS011;7101;51.600;7.310;2023-02-22T10:07:25;19.38;;;12.60;;
14052;SDS011;7101;51.600;7.310;2023-02-22T10:09:56;16.30;;;12.60;;
14052;SDS011;7101;51.600;7.310;2023-02-22T10:12:32;15.80;;;12.07;;
14052;SDS011;7101;51.600;7.310;2023-02-22T10:18:05;16.40;;;12.52;;
14052;SDS011;7101;51.600;7.310;2023-02-22T10:20:48;16.02;;;12.48;;
14052;SDS011;7101;51.600;7.310;2023-02-22T10:23:22;16.42;;;12.38;;
14052;SDS011;7101;51.600;7.310;2023-02-22T10:25:55;16.33;;;12.63;;
14052;SDS011;7101;51.600;7.310;2023-02-22T10:28:32;14.98;;;12.07;;
14052;SDS011;7101;51.600;7.310;2023-02-22T10:31:07;15.50;;;12.05;;
14052;SDS011;7101;51.600;7.310;2023-02-22T10:33:40;16.98;;;11.60;;
14052;SDS011;7101;51.600;7.310;2023-02-22T10:36:14;15.38;;;11.65;;
14052;SDS011;7101;51.600;7.310;2023-02-22T10:38:44;13.48;;;10.70;;
14052;SDS011;7101;51.600;7.310;2023-02-22T10:41:19;16.40;;;10.93;;
14052;SDS011;7101;51.600;7.310;2023-02-22T10:43:53;12.82;;;10.98;;
14052;SDS011;7101;51.600;7.310;2023-02-22T10:46:32;13.70;;;10.85;;
14052;SDS011;7101;51.600;7.310;2023-02-22T10:49:01;16.85;;;11.07;;
14052;SDS011;7101;51.600;7.310;2023-02-22T10:51:32;12.85;;;10.57;;
14052;SDS011;7101;51.600;7.310;2023-02-22T10:54:02;13.40;;;10.95;;
14052;SDS011;7101;51.600;7.310;2023-02-22T10:56:49;14.45;;;10.98;;
14052;SDS011;7101;51.600;7.310;2023-02-22T10:59:25;13.27;;;10.80;;
14052;SDS011;7101;51.600;7.310;2023-02-22T11:01:56;16.52;;;11.70;;
14052;SDS011;7101;51.600;7.310;2023-02-22T11:04:24;16.10;;;12.50;;
14052;SDS011;7101;51.600;7.310;2023-02-22T11:09:46;18.77;;;13.32;;
14052;SDS011;7101;51.600;7.310;2023-02-22T11:12:17;18.48;;;12.98;;
14052;SDS011;7101;51.600;7.310;2023-02-22T11:14:45;17.95;;;12.80;;
14052;SDS011;7101;51.600;7.310;2023-02-22T11:17:21;18.75;;;13.73;;
14052;SDS011;7101;51.600;7.310;2023-02-22T11:19:54;16.88;;;12.70;;
14052;SDS011;7101;51.600;7.310;2023-02-22T11:22:24;21.10;;;13.48;;
14052;SDS011;7101;51.600;7.310;2023-02-22T11:24:54;20.30;;;14.30;;
14052;SDS011;7101;51.600;7.310;2023-02-22T11:27:29;19.08;;;13.77;;
14052;SDS011;7101;51.600;7.310;2023-02-22T11:30:18;19.23;;;12.65;;
14052;SDS011;7101;51.600;7.310;2023-02-22T11:32:53;18.08;;;11.80;;
14052;SDS011;7101;51.600;7.310;2023-02-22T11:35:33;20.80;;;12.63;;
14052;SDS011;7101;51.600;7.310;2023-02-22T11:38:08;16.08;;;12.10;;
14052;SDS011;7101;51.600;7.310;2023-02-22T11:40:38;14.57;;;11.88;;
14052;SDS011;7101;51.600;7.310;2023-02-22T11:43:06;17.80;;;12.82;;
14052;SDS011;7101;51.600;7.310;2023-02-22T11:45:36;16.58;;;12.30;;
14052;SDS011;7101;51.600;7.310;2023-02-22T11:48:05;16.45;;;13.23;;
14052;SDS011;7101;51.600;7.310;2023-02-22T11:50:37;17.98;;;12.90;;
14052;SDS011;7101;51.600;7.310;2023-02-22T11:53:24;19.20;;;13.30;;
14052;SDS011;7101;51.600;7.310;2023-02-22T11:56:02;18.48;;;12.60;;
14052;SDS011;7101;51.600;7.310;2023-02-22T11:58:40;19.02;;;13.68;;
14052;SDS011;7101;51.600;7.310;2023-02-22T12:01:15;20.15;;;13.50;;
14052;SDS011;7101;51.600;7.310;2023-02-22T12:06:48;16.75;;;10.48;;
14052;SDS011;7101;51.600;7.310;2023-02-22T12:09:24;11.73;;;8.70;;
14052;SDS011;7101;51.600;7.310;2023-02-22T12:12:03;16.55;;;9.65;;
14052;SDS011;7101;51.600;7.310;2023-02-22T12:14:43;11.85;;;9.30;;
14052;SDS011;7101;51.600;7.310;2023-02-22T12:17:31;14.10;;;8.80;;
14052;SDS011;7101;51.600;7.310;2023-02-22T12:20:08;12.05;;;8.90;;
14052;SDS011;7101;51.600;7.310;2023-02-22T12:22:51;14.10;;;8.63;;
14052;SDS011;7101;51.600;7.310;2023-02-22T12:25:22;13.27;;;7.88;;
14052;SDS011;7101;51.600;7.310;2023-02-22T12:27:54;10.25;;;7.45;;
14052;SDS011;7101;51.600;7.310;2023-02-22T12:30:25;11.20;;;7.75;;
14052;SDS011;7101;51.600;7.310;2023-02-22T12:32:57;11.77;;;7.05;;
14052;SDS011;7101;51.600;7.310;2023-02-22T12:35:31;14.07;;;7.55;;
14052;SDS011;7101;51.600;7.310;2023-02-22T12:38:06;8.18;;;6.07;;
14052;SDS011;7101;51.600;7.310;2023-02-22T12:40:42;9.13;;;5.93;;
14052;SDS011;7101;51.600;7.310;2023-02-22T12:43:18;9.15;;;4.97;;
14052;SDS011;7101;51.600;7.310;2023-02-22T12:45:51;10.07;;;5.45;;
14052;SDS011;7101;51.600;7.310;2023-02-22T12:48:29;10.20;;;5.38;;
14052;SDS011;7101;51.600;7.310;2023-02-22T12:51:02;8.43;;;4.63;;
14052;SDS011;7101;51.600;7.310;2023-02-22T12:53:41;9.10;;;4.53;;
14052;SDS011;7101;51.600;7.310;2023-02-22T12:56:18;6.55;;;4.43;;
14052;SDS011;7101;51.600;7.310;2023-02-22T12:58:50;5.63;;;3.90;;
14052;SDS011;7101;51.600;7.310;2023-02-22T13:01:30;6.72;;;3.90;;
14052;SDS011;7101;51.600;7.310;2023-02-22T13:04:02;6.53;;;4.15;;
14052;SDS011;7101;51.600;7.310;2023-02-22T13:06:40;7.22;;;3.95;;
14052;SDS011;7101;51.600;7.310;2023-02-22T13:09:31;8.65;;;4.05;;
14052;SDS011;7101;51.600;7.310;2023-02-22T13:12:07;5.72;;;3.92;;
14052;SDS011;7101;51.600;7.310;2023-02-22T13:14:42;6.18;;;4.00;;
14052;SDS011;7101;51.600;7.310;2023-02-22T13:17:18;10.98;;;4.00;;
14052;SDS011;7101;51.600;7.310;2023-02-22T13:19:53;5.72;;;3.88;;
14052;SDS011;7101;51.600;7.310;2023-02-22T13:22:25;5.15;;;3.47;;
14052;SDS011;7101;51.600;7.310;2023-02-22T13:25:02;6.03;;;3.67;;
14052;SDS011;7101;51.600;7.310;2023-02-22T13:27:39;5.35;;;3.63;;
14052;SDS011;7101;51.600;7.310;2023-02-22T13:30:14;6.03;;;4.00;;
14052;SDS011;7101;51.600;7.310;2023-02-22T13:32:50;6.28;;;3.65;;
14052;SDS011;7101;51.600;7.310;2023-02-22T13:35:41;5.65;;;3.60;;
14052;SDS011;7101;51.600;7.310;2023-02-22T13:41:41;5.97;;;3.78;;
14052;SDS011;7101;51.600;7.310;2023-02-22T13:44:52;6.43;;;3.70;;
14052;SDS011;7101;51.600;7.310;2023-02-22T13:50:46;8.00;;;3.85;;
14052;SDS011;7101;51.600;7.310;2023-02-22T13:53:32;8.38;;;4.40;;
14052;SDS011;7101;51.600;7.310;2023-02-22T13:56:07;7.43;;;4.13;;
14052;SDS011;7101;51.600;7.310;2023-02-22T13:58:47;7.03;;;4.32;;
14052;SDS011;7101;51.600;7.310;2023-02-22T14:01:36;7.00;;;3.90;;
14052;SDS011;7101;51.600;7.310;2023-02-22T14:06:59;7.82;;;3.80;;
14052;SDS011;7101;51.600;7.310;2023-02-22T14:15:21;6.03;;;3.75;;
14052;SDS011;7101;51.600;7.310;2023-02-22T14:17:48;6.72;;;3.95;;
14052;SDS011;7101;51.600;7.310;2023-02-22T14:20:24;6.85;;;4.15;;
14052;SDS011;7101;51.600;7.310;2023-02-22T14:22:56;7.78;;;4.28;;
14052;SDS011;7101;51.600;7.310;2023-02-22T14:25:45;5.95;;;4.05;;
14052;SDS011;7101;51.600;7.310;2023-02-22T14:31:07;6.78;;;3.90;;
14052;SDS011;7101;51.600;7.310;2023-02-22T14:33:49;6.38;;;3.85;;
14052;SDS011;7101;51.600;7.310;2023-02-22T14:36:19;5.75;;;3.78;;
14052;SDS011;7101;51.600;7.310;2023-02-22T14:38:47;6.55;;;4.05;;
14052;SDS011;7101;51.600;7.310;2023-02-22T14:41:16;9.60;;;4.43;;
14052;SDS011;7101;51.600;7.310;2023-02-22T14:43:44;6.60;;;4.35;;
14052;SDS011;7101;51.600;7.310;2023-02-22T14:46:17;7.05;;;4.13;;
14052;SDS011;7101;51.600;7.310;2023-02-22T14:48:48;7.63;;;4.22;;
14052;SDS011;7101;51.600;7.310;2023-02-22T14:51:21;7.05;;;4.40;;
14052;SDS011;7101;51.600;7.310;2023-02-22T14:53:53;8.32;;;5.00;;
14052;SDS011;7101;51.600;7.310;2023-02-22T14:56:25;7.60;;;4.50;;
14052;SDS011;7101;51.600;7.310;2023-02-22T14:59:07;8.57;;;4.95;;
14052;SDS011;7101;51.600;7.310;2023-02-22T15:01:42;7.78;;;4.70;;
14052;SDS011;7101;51.600;7.310;2023-02-22T15:04:18;9.20;;;4.63;;
14052;SDS011;7101;51.600;7.310;2023-02-22T15:06:47;6.35;;;4.32;;
14052;SDS011;7101;51.600;7.310;2023-02-22T15:09:15;8.82;;;4.85;;
14052;SDS011;7101;51.600;7.310;2023-02-22T15:11:48;8.77;;;5.10;;
14052;SDS011;7101;51.600;7.310;2023-02-22T15:14:18;6.03;;;4.35;;
14052;SDS011;7101;51.600;7.310;2023-02-22T15:16:48;7.57;;;4.57;;
14052;SDS011;7101;51.600;7.310;2023-02-22T15:19:19;7.80;;;4.68;;
14052;SDS011;7101;51.600;7.310;2023-02-22T15:21:50;13.02;;;4.97;;
14052;SDS011;7101;51.600;7.310;2023-02-22T15:26:51;10.00;;;4.75;;
14052;SDS011;7101;51.600;7.310;2023-02-22T15:29:19;7.85;;;5.10;;
14052;SDS011;7101;51.600;7.310;2023-02-22T15:31:50;9.77;;;5.07;;